Time;durP1;ratioP1;P1;durP2;ratioP2;P2;SDS_P1;SDS_P2;PMS_P1;PMS_P2;Temp;Humidity;BMP_temperature;BMP_pressure;BME280_temperature;BME280_humidity;BME280_pressure;Samples;Min_cycle;Max_cycle;Signal;HPM_P1;HPM_P2
2023/07/20 00:03:25;;;;;;;2.70;2.10;;;26.60;49.50;;;;;;222506;1253;22997;-46
2023/07/20 00:08:30;;;;;;;2.60;2.20;;;26.70;50.00;;;;;;222680;1263;22511;-47
2023/07/20 00:13:34;;;;;;;3.50;2.10;;;26.60;49.90;;;;;;222541;1264;26502;-46
2023/07/20 00:18:39;;;;;;;1.90;1.80;;;26.50;49.80;;;;;;222716;1258;23148;-46
2023/07/20 00:23:43;;;;;;;2.70;1.80;;;26.50;50.40;;;;;;222740;1267;22518;-47
2023/07/20 00:28:49;;;;;;;3.30;2.40;;;26.50;50.00;;;;;;222874;1261;22521;-47
2023/07/20 00:33:55;;;;;;;1.60;1.50;;;26.50;50.20;;;;;;222384;1263;22567;-49
2023/07/20 00:38:59;;;;;;;3.50;2.10;;;26.40;50.70;;;;;;222636;1261;22634;-46
2023/07/20 00:44:05;;;;;;;4.10;1.90;;;26.50;50.40;;;;;;222564;1260;22620;-49
2023/07/20 00:49:09;;;;;;;2.80;1.60;;;26.40;51.00;;;;;;222718;1251;25456;-48
2023/07/20 00:54:15;;;;;;;2.10;1.80;;;26.30;50.90;;;;;;222602;1256;24170;-46
2023/07/20 00:59:19;;;;;;;2.00;1.90;;;26.40;51.20;;;;;;222581;1257;22515;-46
2023/07/20 01:04:26;;;;;;;2.50;2.10;;;26.30;51.40;;;;;;222931;1261;24187;-49
2023/07/20 01:10:11;;;;;;;3.30;1.90;;;26.30;51.60;;;;;;222672;1256;22507;-47
2023/07/20 01:15:16;;;;;;;2.60;1.90;;;26.30;51.40;;;;;;222795;1261;23354;-46
2023/07/20 01:20:22;;;;;;;1.90;1.60;;;26.30;51.80;;;;;;222475;1260;23975;-47
2023/07/20 01:25:45;;;;;;;2.80;1.70;;;26.30;51.90;;;;;;222519;1264;24044;-46
2023/07/20 01:31:08;;;;;;;3.30;1.70;;;26.30;51.70;;;;;;222466;1268;24187;-48
2023/07/20 01:36:14;;;;;;;1.90;1.70;;;26.30;51.80;;;;;;222921;1260;26038;-48
2023/07/20 01:41:19;;;;;;;3.00;2.20;;;26.30;52.00;;;;;;222542;1266;22623;-47
2023/07/20 01:46:23;;;;;;;1.70;1.60;;;26.30;52.20;;;;;;222708;1266;22948;-45
2023/07/20 01:51:30;;;;;;;5.20;1.80;;;26.20;52.80;;;;;;222648;1254;24260;-48
2023/07/20 01:56:34;;;;;;;2.00;1.80;;;26.20;52.50;;;;;;222367;1257;22537;-46
2023/07/20 02:01:39;;;;;;;2.90;2.30;;;26.20;52.90;;;;;;222492;1266;24076;-48
2023/07/20 02:06:43;;;;;;;2.50;1.90;;;26.10;52.50;;;;;;222704;1260;24963;-48
2023/07/20 02:11:48;;;;;;;2.60;2.20;;;26.10;52.50;;;;;;221914;1264;25063;-47
2023/07/20 02:16:52;;;;;;;1.80;1.70;;;26.10;52.50;;;;;;221743;1262;425529;-47
2023/07/20 02:21:56;;;;;;;1.80;1.70;;;26.10;52.50;;;;;;222329;1257;22536;-47
2023/07/20 02:27:01;;;;;;;3.40;1.80;;;26.10;52.10;;;;;;222194;1267;24219;-48
2023/07/20 02:32:06;;;;;;;2.90;2.10;;;26.10;52.50;;;;;;222085;1254;22518;-46
2023/07/20 02:37:12;;;;;;;2.70;1.90;;;26.10;52.50;;;;;;222052;1254;22627;-48
2023/07/20 02:42:19;;;;;;;2.50;1.60;;;26.00;52.80;;;;;;222247;1269;25226;-49
2023/07/20 02:47:23;;;;;;;2.00;1.80;;;26.10;52.70;;;;;;222212;1264;25437;-45
2023/07/20 02:52:29;;;;;;;2.70;1.70;;;26.00;52.50;;;;;;222117;1264;25241;-45
2023/07/20 02:57:33;;;;;;;1.60;1.50;;;26.00;52.60;;;;;;222069;1254;22498;-48
2023/07/20 03:02:38;;;;;;;5.30;1.60;;;26.10;52.50;;;;;;222172;1263;24228;-47
2023/07/20 03:07:43;;;;;;;1.80;1.40;;;26.00;52.60;;;;;;222297;1264;24207;-49
2023/07/20 03:12:47;;;;;;;2.10;1.50;;;26.00;52.60;;;;;;222648;1260;22537;-50
2023/07/20 03:17:51;;;;;;;2.10;1.90;;;26.00;52.80;;;;;;221441;1269;22955;-48
2023/07/20 03:22:55;;;;;;;2.00;1.60;;;26.00;53.10;;;;;;221099;1267;24206;-48
2023/07/20 03:27:59;;;;;;;1.90;1.80;;;26.00;52.80;;;;;;221242;1267;22788;-47
2023/07/20 03:33:04;;;;;;;1.80;1.60;;;26.00;52.80;;;;;;221273;1264;22561;-47
2023/07/20 03:38:09;;;;;;;2.80;1.80;;;26.00;53.40;;;;;;222650;1264;22775;-46
2023/07/20 03:43:13;;;;;;;1.60;1.50;;;25.90;52.70;;;;;;222542;1261;26063;-47
2023/07/20 03:48:21;;;;;;;1.90;1.50;;;25.90;53.00;;;;;;222486;1260;22593;-46
2023/07/20 03:53:25;;;;;;;4.00;1.50;;;25.90;53.30;;;;;;222827;1254;22518;-46
2023/07/20 03:58:31;;;;;;;2.90;1.80;;;25.90;52.90;;;;;;222434;1264;25450;-46
2023/07/20 04:03:36;;;;;;;1.90;1.80;;;25.90;53.20;;;;;;222739;1260;22518;-46
2023/07/20 04:08:40;;;;;;;3.10;1.80;;;25.90;53.50;;;;;;222646;1261;22633;-47
2023/07/20 04:13:44;;;;;;;1.60;1.50;;;25.80;53.50;;;;;;222673;1258;24298;-46
2023/07/20 04:18:49;;;;;;;2.50;1.40;;;25.80;53.80;;;;;;222497;1257;22508;-46
2023/07/20 04:23:53;;;;;;;1.60;1.50;;;25.80;53.20;;;;;;222516;1261;24941;-46
2023/07/20 04:28:59;;;;;;;2.40;1.60;;;25.80;53.60;;;;;;222382;1261;22514;-48
2023/07/20 04:34:12;;;;;;;4.70;1.70;;;25.80;53.40;;;;;;222547;1261;22509;-47
2023/07/20 04:39:18;;;;;;;1.70;1.50;;;25.80;53.60;;;;;;222888;1251;22611;-46
2023/07/20 04:44:37;;;;;;;3.10;1.80;;;25.80;53.70;;;;;;222544;1264;22511;-47
2023/07/20 04:49:42;;;;;;;3.40;2.10;;;25.80;53.80;;;;;;222940;1264;22530;-46
2023/07/20 04:54:46;;;;;;;2.10;1.90;;;25.80;54.00;;;;;;222492;1260;24262;-46
2023/07/20 04:59:51;;;;;;;2.60;1.80;;;25.80;54.20;;;;;;222695;1257;25470;-48
2023/07/20 05:04:55;;;;;;;1.90;1.50;;;25.80;54.40;;;;;;222456;1267;22617;-47
2023/07/20 05:10:00;;;;;;;1.80;1.60;;;25.80;54.40;;;;;;222453;1264;22651;-46
2023/07/20 05:15:05;;;;;;;2.60;1.80;;;25.80;54.50;;;;;;222652;1261;22522;-47
2023/07/20 05:20:12;;;;;;;3.90;1.90;;;25.80;54.90;;;;;;222490;1264;22627;-48
2023/07/20 05:25:18;;;;;;;2.20;1.60;;;25.80;53.90;;;;;;222796;1267;23146;-46
2023/07/20 05:30:22;;;;;;;3.30;1.50;;;25.90;54.70;;;;;;222843;1264;22732;-46
2023/07/20 05:35:26;;;;;;;2.10;1.50;;;25.80;54.80;;;;;;222745;1263;22513;-48
2023/07/20 05:40:31;;;;;;;3.90;1.70;;;25.80;55.40;;;;;;223071;1252;24243;-46
2023/07/20 05:45:35;;;;;;;1.80;1.70;;;25.70;55.10;;;;;;222424;1263;23001;-48
2023/07/20 05:50:43;;;;;;;1.70;1.60;;;25.80;55.10;;;;;;222746;1264;22514;-47
2023/07/20 05:55:54;;;;;;;2.80;1.90;;;25.80;55.30;;;;;;222726;1261;24343;-49
2023/07/20 06:00:58;;;;;;;2.70;1.70;;;25.80;55.50;;;;;;222687;1263;23886;-47
2023/07/20 06:06:08;;;;;;;2.10;1.90;;;25.80;55.60;;;;;;222539;1261;22509;-48
2023/07/20 06:11:12;;;;;;;2.90;2.10;;;25.80;55.70;;;;;;222622;1261;25262;-49
2023/07/20 06:16:16;;;;;;;3.20;2.50;;;25.70;55.60;;;;;;222382;1258;22632;-46
2023/07/20 06:21:21;;;;;;;1.90;1.80;;;25.70;55.60;;;;;;222528;1266;22514;-46
2023/07/20 06:26:25;;;;;;;3.10;2.00;;;25.70;55.70;;;;;;222484;1254;22523;-47
2023/07/20 06:31:29;;;;;;;3.70;2.40;;;25.80;55.60;;;;;;222798;1260;24092;-45
2023/07/20 06:36:35;;;;;;;2.60;2.30;;;25.80;56.10;;;;;;222401;1267;25271;-45
2023/07/20 06:41:39;;;;;;;2.80;2.10;;;25.80;56.00;;;;;;222374;1244;24426;-47
2023/07/20 06:46:46;;;;;;;2.40;2.00;;;25.80;55.70;;;;;;222536;1254;22525;-50
2023/07/20 06:51:50;;;;;;;4.60;2.20;;;25.90;56.00;;;;;;222415;1264;23877;-46
2023/07/20 06:56:54;;;;;;;4.30;1.90;;;25.90;55.80;;;;;;222592;1260;24358;-46
2023/07/20 07:02:01;;;;;;;2.10;1.90;;;25.90;55.50;;;;;;222299;1261;22577;-47
2023/07/20 07:07:05;;;;;;;3.00;2.00;;;25.90;56.00;;;;;;222515;1267;25261;-47
2023/07/20 07:12:10;;;;;;;4.60;2.30;;;25.90;55.70;;;;;;222590;1254;23764;-49
2023/07/20 07:17:15;;;;;;;3.70;2.40;;;25.90;55.80;;;;;;222643;1254;22532;-46
2023/07/20 07:22:23;;;;;;;5.60;2.70;;;25.90;55.60;;;;;;222287;1261;23902;-47
2023/07/20 07:27:27;;;;;;;10.10;2.60;;;26.00;55.30;;;;;;222485;1267;23968;-47
2023/07/20 07:32:31;;;;;;;8.00;2.50;;;26.10;56.60;;;;;;222185;1268;24072;-46
2023/07/20 07:37:36;;;;;;;2.60;2.20;;;26.10;56.20;;;;;;222423;1260;25425;-46
2023/07/20 07:43:00;;;;;;;4.80;2.60;;;26.10;55.60;;;;;;222671;1263;22517;-44
2023/07/20 07:48:11;;;;;;;4.70;2.60;;;26.00;55.80;;;;;;222646;1261;22513;-48
2023/07/20 07:53:15;;;;;;;3.20;2.60;;;26.00;56.40;;;;;;222406;1260;22586;-47
2023/07/20 07:58:19;;;;;;;4.50;2.50;;;26.00;55.90;;;;;;222568;1261;22550;-46
2023/07/20 08:03:24;;;;;;;2.60;2.40;;;25.90;56.60;;;;;;222224;1264;22528;-48
2023/07/20 08:08:28;;;;;;;2.40;2.20;;;25.90;56.40;;;;;;222531;1263;22495;-48
2023/07/20 08:13:33;;;;;;;3.70;2.70;;;25.90;55.90;;;;;;222582;1263;22633;-47
2023/07/20 08:18:37;;;;;;;3.60;2.30;;;25.90;56.50;;;;;;222399;1256;24187;-47
2023/07/20 08:23:42;;;;;;;5.00;2.40;;;25.90;56.00;;;;;;222262;1262;22516;-48
2023/07/20 08:28:48;;;;;;;5.90;2.50;;;26.00;55.70;;;;;;222526;1266;22563;-48
2023/07/20 08:33:52;;;;;;;3.00;2.20;;;26.00;55.30;;;;;;222460;1260;25351;-47
2023/07/20 08:38:57;;;;;;;2.40;2.00;;;26.00;56.30;;;;;;222606;1260;22505;-45
2023/07/20 08:44:01;;;;;;;3.80;1.80;;;25.90;56.50;;;;;;222543;1264;24211;-48
2023/07/20 08:49:06;;;;;;;2.60;1.90;;;25.80;55.80;;;;;;222665;1260;22521;-45
2023/07/20 08:54:12;;;;;;;2.10;1.70;;;25.80;55.60;;;;;;222444;1267;22630;-46
2023/07/20 08:59:18;;;;;;;2.60;1.80;;;26.00;55.70;;;;;;222238;1256;22601;-47
2023/07/20 09:04:22;;;;;;;1.60;1.50;;;26.00;55.10;;;;;;222466;1267;22662;-46
2023/07/20 09:09:26;;;;;;;1.50;1.30;;;25.90;54.80;;;;;;222306;1260;24365;-47
2023/07/20 09:14:31;;;;;;;1.60;1.50;;;25.90;54.60;;;;;;222399;1257;22759;-47
2023/07/20 09:19:35;;;;;;;4.00;1.60;;;26.00;54.30;;;;;;222386;1267;23213;-46
2023/07/20 09:24:41;;;;;;;1.80;1.50;;;26.00;54.00;;;;;;222352;1261;22514;-47
2023/07/20 09:29:51;;;;;;;1.70;1.50;;;25.90;53.80;;;;;;222230;1262;24208;-47
2023/07/20 09:34:55;;;;;;;1.60;1.20;;;26.00;53.60;;;;;;222377;1267;26222;-47
2023/07/20 09:39:59;;;;;;;1.90;1.70;;;26.00;53.50;;;;;;222552;1260;25183;-46
2023/07/20 09:45:08;;;;;;;1.20;1.10;;;26.00;53.50;;;;;;222326;1266;22649;-47
2023/07/20 09:50:12;;;;;;;2.00;1.30;;;26.10;53.60;;;;;;222439;1266;24333;-46
2023/07/20 09:55:21;;;;;;;1.50;1.10;;;26.00;53.00;;;;;;222252;1267;22563;-46
2023/07/20 10:00:25;;;;;;;1.90;1.20;;;26.10;53.00;;;;;;222442;1263;22518;-46
2023/07/20 10:05:34;;;;;;;1.40;1.20;;;26.10;53.10;;;;;;222361;1263;24342;-48
2023/07/20 10:10:44;;;;;;;1.80;1.10;;;26.20;52.70;;;;;;222706;1263;22563;-46
2023/07/20 10:15:55;;;;;;;5.60;1.20;;;26.10;52.80;;;;;;222436;1261;22763;-44
2023/07/20 10:21:01;;;;;;;1.20;1.00;;;26.10;52.40;;;;;;222312;1266;22504;-45
2023/07/20 10:26:09;;;;;;;1.50;1.10;;;26.10;52.60;;;;;;222604;1264;22521;-46
2023/07/20 10:31:15;;;;;;;1.20;1.10;;;26.20;52.40;;;;;;222409;1266;23143;-48
2023/07/20 10:36:27;;;;;;;1.00;0.80;;;26.20;51.80;;;;;;222443;1263;22786;-46
2023/07/20 10:41:39;;;;;;;1.00;0.90;;;26.20;51.70;;;;;;222673;1261;23002;-47
2023/07/20 10:46:45;;;;;;;1.10;1.00;;;26.20;51.00;;;;;;222584;1263;22965;-46
2023/07/20 10:51:59;;;;;;;2.70;1.00;;;26.30;51.60;;;;;;222877;1265;22511;-46
2023/07/20 10:57:24;;;;;;;1.10;0.90;;;26.30;51.50;;;;;;222591;1267;22510;-45
2023/07/20 11:02:28;;;;;;;1.10;0.90;;;26.20;51.40;;;;;;222461;1263;23136;-49
2023/07/20 11:07:38;;;;;;;2.40;0.80;;;26.30;51.20;;;;;;222502;1264;22627;-48
2023/07/20 11:13:20;;;;;;;1.90;1.00;;;26.30;50.80;;;;;;222241;1260;24176;-46
2023/07/20 11:18:27;;;;;;;3.70;1.10;;;26.40;51.10;;;;;;222608;1266;24223;-47
2023/07/20 11:23:32;;;;;;;1.40;1.30;;;26.40;50.80;;;;;;222862;1260;25342;-46
2023/07/20 11:28:36;;;;;;;3.30;1.20;;;26.40;50.60;;;;;;222684;1260;23911;-46
2023/07/20 11:33:40;;;;;;;0.80;0.80;;;26.30;50.10;;;;;;222556;1260;23248;-45
2023/07/20 11:38:46;;;;;;;1.60;0.80;;;26.20;50.20;;;;;;222656;1251;22508;-46
2023/07/20 11:43:50;;;;;;;3.60;1.00;;;26.30;50.40;;;;;;222587;1263;24076;-46
2023/07/20 11:49:02;;;;;;;4.50;1.40;;;26.30;50.20;;;;;;222789;1267;26477;-43
2023/07/20 11:54:09;;;;;;;1.00;0.90;;;26.30;50.30;;;;;;222561;1250;22500;-44
2023/07/20 11:59:13;;;;;;;1.90;0.70;;;26.30;50.30;;;;;;222648;1254;25236;-46
2023/07/20 12:04:17;;;;;;;2.10;0.90;;;26.40;50.70;;;;;;222446;1254;25340;-47
2023/07/20 12:09:21;;;;;;;1.40;0.80;;;26.30;50.90;;;;;;222640;1260;23882;-45
2023/07/20 12:14:26;;;;;;;1.20;1.00;;;26.30;51.30;;;;;;222593;1254;22637;-45
2023/07/20 12:19:30;;;;;;;1.00;0.90;;;26.30;51.80;;;;;;222600;1254;22514;-46
2023/07/20 12:24:35;;;;;;;1.00;0.80;;;26.30;52.60;;;;;;222567;1261;22511;-46
2023/07/20 12:29:39;;;;;;;1.80;1.30;;;26.20;52.50;;;;;;222495;1263;22570;-45
2023/07/20 12:34:43;;;;;;;1.80;0.90;;;26.30;52.70;;;;;;222346;1268;24080;-47
2023/07/20 12:39:47;;;;;;;1.30;1.20;;;26.30;52.60;;;;;;222444;1256;25344;-46
2023/07/20 12:44:52;;;;;;;1.10;1.10;;;26.30;52.70;;;;;;222344;1253;24229;-45
2023/07/20 12:49:56;;;;;;;1.00;1.00;;;26.40;52.90;;;;;;222558;1254;24337;-47
2023/07/20 12:55:01;;;;;;;1.40;1.30;;;26.30;52.80;;;;;;222577;1266;22541;-47
2023/07/20 13:00:10;;;;;;;2.70;1.70;;;26.30;53.00;;;;;;222430;1263;24366;-46
2023/07/20 13:05:14;;;;;;;1.30;1.30;;;26.30;52.80;;;;;;222519;1260;22525;-44
2023/07/20 13:10:19;;;;;;;1.60;1.20;;;26.40;52.60;;;;;;222823;1254;22507;-46
2023/07/20 13:15:30;;;;;;;1.20;1.10;;;26.40;52.60;;;;;;222547;1263;22504;-46
2023/07/20 13:20:34;;;;;;;2.50;1.40;;;26.40;52.30;;;;;;222514;1267;22906;-43
2023/07/20 13:25:38;;;;;;;1.50;1.40;;;26.50;52.20;;;;;;222435;1260;24318;-46
2023/07/20 13:30:44;;;;;;;1.30;1.20;;;26.50;52.00;;;;;;222326;1267;24243;-46
2023/07/20 13:35:49;;;;;;;1.40;1.10;;;26.50;52.00;;;;;;222446;1260;24389;-44
2023/07/20 13:40:53;;;;;;;1.40;1.10;;;26.50;52.20;;;;;;222395;1261;22761;-44
2023/07/20 13:45:57;;;;;;;2.80;1.30;;;26.50;52.10;;;;;;222304;1261;24183;-46
2023/07/20 13:51:01;;;;;;;1.70;1.30;;;26.50;51.80;;;;;;222430;1258;22508;-45
2023/07/20 13:56:06;;;;;;;1.30;1.20;;;26.50;51.80;;;;;;222730;1261;25593;-44
2023/07/20 14:01:17;;;;;;;2.30;1.40;;;26.60;51.80;;;;;;222687;1263;24330;-44
2023/07/20 14:06:24;;;;;;;2.80;1.90;;;26.60;51.40;;;;;;222494;1263;22514;-47
2023/07/20 14:11:33;;;;;;;2.00;1.60;;;26.70;51.30;;;;;;222952;1264;22633;-45
2023/07/20 14:16:41;;;;;;;2.20;1.20;;;26.60;50.90;;;;;;222033;1263;326723;-45
2023/07/20 14:21:45;;;;;;;5.40;1.60;;;26.60;50.90;;;;;;222300;1267;22623;-45
2023/07/20 14:26:49;;;;;;;3.60;1.60;;;26.60;50.60;;;;;;222752;1263;22673;-45
2023/07/20 14:31:55;;;;;;;2.60;1.60;;;26.80;50.60;;;;;;222497;1250;24179;-44
2023/07/20 14:37:00;;;;;;;5.30;1.70;;;26.70;50.50;;;;;;222523;1264;22518;-44
2023/07/20 14:42:04;;;;;;;2.70;1.40;;;26.80;50.40;;;;;;222738;1261;24453;-44
2023/07/20 14:47:09;;;;;;;3.50;1.30;;;26.80;50.40;;;;;;223008;1263;22633;-46
2023/07/20 14:52:18;;;;;;;2.00;1.30;;;26.70;50.30;;;;;;222601;1263;22599;-46
2023/07/20 14:57:23;;;;;;;1.70;1.40;;;26.80;50.40;;;;;;222586;1250;24225;-46
2023/07/20 15:02:27;;;;;;;2.40;1.40;;;26.70;50.20;;;;;;222569;1262;22619;-45
2023/07/20 15:07:32;;;;;;;2.90;2.20;;;26.70;50.20;;;;;;222646;1260;24335;-45
2023/07/20 15:12:36;;;;;;;2.40;1.50;;;26.70;52.70;;;;;;222639;1259;23920;-47
2023/07/20 15:17:45;;;;;;;2.10;1.60;;;26.90;50.10;;;;;;222531;1264;24240;-49
2023/07/20 15:22:49;;;;;;;3.00;1.50;;;26.90;50.30;;;;;;222388;1256;22490;-46
2023/07/20 15:27:55;;;;;;;1.60;1.40;;;26.80;51.40;;;;;;222198;1261;22630;-45
2023/07/20 15:33:01;;;;;;;2.50;1.70;;;26.80;51.50;;;;;;222640;1260;22758;-46
2023/07/20 15:38:08;;;;;;;1.50;1.40;;;26.90;51.20;;;;;;222643;1263;22515;-46
2023/07/20 15:43:13;;;;;;;1.60;1.40;;;26.90;51.40;;;;;;222939;1254;25252;-47
2023/07/20 15:48:20;;;;;;;2.30;1.50;;;26.80;51.60;;;;;;222527;1263;22511;-48
2023/07/20 15:53:26;;;;;;;2.40;1.80;;;26.80;51.30;;;;;;222484;1260;24163;-47
2023/07/20 15:58:30;;;;;;;4.30;1.40;;;26.80;51.30;;;;;;222624;1261;22536;-46
2023/07/20 16:03:36;;;;;;;1.60;1.30;;;26.80;51.20;;;;;;222567;1261;23663;-47
2023/07/20 16:08:41;;;;;;;1.40;1.30;;;26.80;51.00;;;;;;221193;1266;23172;-46
2023/07/20 16:13:45;;;;;;;1.40;1.10;;;26.80;50.90;;;;;;220993;1266;25529;-45
2023/07/20 16:18:50;;;;;;;1.10;1.10;;;26.80;50.10;;;;;;221220;1260;24186;-47
2023/07/20 16:23:54;;;;;;;1.10;1.00;;;26.80;49.70;;;;;;221460;1268;25372;-47
2023/07/20 16:28:58;;;;;;;2.00;1.00;;;26.80;49.80;;;;;;222472;1263;22512;-47
2023/07/20 16:34:05;;;;;;;1.40;1.00;;;26.90;49.80;;;;;;222115;1260;22597;-41
2023/07/20 16:39:10;;;;;;;1.40;1.10;;;26.80;49.60;;;;;;222293;1254;24171;-43
2023/07/20 16:44:17;;;;;;;1.40;1.00;;;26.80;49.30;;;;;;222725;1256;22571;-43
2023/07/20 16:49:21;;;;;;;0.80;0.70;;;26.90;49.60;;;;;;222452;1253;22666;-42
2023/07/20 16:54:25;;;;;;;0.80;0.80;;;26.90;49.30;;;;;;222588;1254;25453;-43
2023/07/20 16:59:31;;;;;;;0.90;0.90;;;26.80;49.40;;;;;;222459;1256;22797;-42
2023/07/20 17:04:35;;;;;;;1.20;1.00;;;26.80;49.50;;;;;;222467;1261;25315;-41
2023/07/20 17:09:40;;;;;;;2.80;0.90;;;26.80;49.60;;;;;;222551;1261;22508;-43
2023/07/20 17:14:44;;;;;;;1.20;1.00;;;26.80;49.60;;;;;;222642;1246;22504;-42
2023/07/20 17:19:49;;;;;;;1.50;0.80;;;26.80;49.70;;;;;;222624;1259;22543;-43
2023/07/20 17:25:13;;;;;;;1.00;0.80;;;26.80;49.70;;;;;;222630;1265;24212;-45
2023/07/20 17:30:21;;;;;;;1.10;1.00;;;26.80;49.60;;;;;;222977;1260;22518;-44
2023/07/20 17:35:27;;;;;;;1.20;0.70;;;26.80;49.70;;;;;;222706;1254;25204;-47
2023/07/20 17:40:32;;;;;;;1.20;0.90;;;26.80;49.80;;;;;;222688;1263;22514;-47
2023/07/20 17:45:39;;;;;;;1.00;1.00;;;26.80;50.10;;;;;;222926;1261;24160;-46
2023/07/20 17:50:44;;;;;;;0.80;0.80;;;26.80;49.80;;;;;;222669;1256;22796;-51
2023/07/20 17:55:49;;;;;;;1.90;1.10;;;26.70;49.70;;;;;;222828;1262;22649;-47
2023/07/20 18:00:54;;;;;;;0.70;0.70;;;26.80;49.70;;;;;;222835;1260;27039;-51
2023/07/20 18:06:06;;;;;;;0.80;0.80;;;26.70;49.60;;;;;;222974;1253;26466;-48
2023/07/20 18:11:11;;;;;;;1.00;1.00;;;26.70;49.50;;;;;;222939;1257;22508;-49
2023/07/20 18:16:17;;;;;;;1.50;1.00;;;26.70;49.90;;;;;;222712;1253;22543;-47
2023/07/20 18:21:21;;;;;;;1.00;0.90;;;26.70;49.70;;;;;;222925;1264;22630;-48
2023/07/20 18:26:26;;;;;;;0.70;0.70;;;26.70;49.70;;;;;;222964;1257;22517;-47
2023/07/20 18:31:31;;;;;;;0.60;0.60;;;26.70;49.70;;;;;;222543;1260;22518;-46
2023/07/20 18:36:38;;;;;;;1.30;1.20;;;26.70;49.70;;;;;;222793;1261;24228;-49
2023/07/20 18:41:43;;;;;;;0.80;0.80;;;26.70;49.70;;;;;;222893;1259;22534;-48
2023/07/20 18:46:48;;;;;;;1.20;0.90;;;26.60;49.50;;;;;;222444;1260;22900;-46
2023/07/20 18:51:53;;;;;;;0.90;0.90;;;26.70;49.90;;;;;;222629;1260;24250;-47
2023/07/20 18:56:58;;;;;;;1.90;0.60;;;26.70;49.50;;;;;;222764;1261;22521;-51
2023/07/20 19:02:04;;;;;;;2.30;0.90;;;26.60;49.90;;;;;;222851;1254;23896;-47
2023/07/20 19:07:09;;;;;;;0.90;0.90;;;26.60;49.50;;;;;;222577;1253;22511;-48
2023/07/20 19:12:13;;;;;;;0.70;0.70;;;26.60;50.10;;;;;;222703;1260;23928;-49
2023/07/20 19:17:20;;;;;;;0.80;0.80;;;26.60;49.50;;;;;;222670;1257;22570;-47
2023/07/20 19:22:24;;;;;;;1.00;0.90;;;26.60;49.80;;;;;;222989;1267;22512;-47
2023/07/20 19:27:30;;;;;;;0.80;0.80;;;26.60;49.50;;;;;;222842;1266;24039;-49
2023/07/20 19:32:35;;;;;;;1.10;1.00;;;26.60;49.50;;;;;;222638;1263;22647;-47
2023/07/20 19:37:39;;;;;;;1.00;0.80;;;26.60;49.60;;;;;;222686;1263;25542;-48
2023/07/20 19:42:49;;;;;;;1.30;0.80;;;26.60;49.60;;;;;;222688;1260;25389;-47
2023/07/20 19:47:57;;;;;;;0.90;0.80;;;26.50;49.60;;;;;;222768;1266;22920;-46
2023/07/20 19:53:02;;;;;;;2.00;0.90;;;26.50;49.60;;;;;;222909;1260;22528;-48
2023/07/20 19:58:28;;;;;;;1.00;0.80;;;26.60;50.00;;;;;;222801;1264;23989;-50
2023/07/20 20:03:33;;;;;;;0.80;0.80;;;26.60;49.60;;;;;;222632;1263;22779;-52
2023/07/20 20:08:41;;;;;;;0.70;0.70;;;26.50;49.70;;;;;;223049;1259;24295;-48
2023/07/20 20:13:51;;;;;;;1.20;1.10;;;26.50;49.80;;;;;;222729;1263;25306;-48
2023/07/20 20:18:58;;;;;;;2.00;1.00;;;26.50;49.80;;;;;;222979;1261;24314;-49
2023/07/20 20:24:03;;;;;;;1.40;0.80;;;26.50;49.80;;;;;;222577;1260;25438;-49
2023/07/20 20:29:09;;;;;;;1.40;0.90;;;26.50;49.90;;;;;;222736;1266;25401;-49
2023/07/20 20:34:13;;;;;;;0.80;0.80;;;26.50;49.90;;;;;;222530;1268;24408;-47
2023/07/20 20:39:20;;;;;;;1.10;1.00;;;26.50;50.00;;;;;;222435;1266;24188;-50
2023/07/20 20:44:27;;;;;;;1.10;1.00;;;26.50;50.00;;;;;;222803;1266;23792;-47
2023/07/20 20:49:32;;;;;;;0.90;0.90;;;26.50;50.00;;;;;;222863;1266;22548;-48
2023/07/20 20:54:37;;;;;;;0.70;0.70;;;26.50;50.00;;;;;;222556;1254;22658;-48
2023/07/20 20:59:47;;;;;;;1.70;1.20;;;26.50;50.00;;;;;;222548;1267;22529;-48
2023/07/20 21:04:51;;;;;;;1.00;0.90;;;26.50;50.00;;;;;;222787;1256;22533;-46
2023/07/20 21:09:56;;;;;;;1.50;1.20;;;26.40;50.30;;;;;;222694;1260;22644;-49
2023/07/20 21:15:05;;;;;;;1.20;1.10;;;26.40;50.00;;;;;;222388;1267;22522;-48
2023/07/20 21:20:10;;;;;;;1.00;1.00;;;26.40;50.10;;;;;;222508;1262;23089;-45
2023/07/20 21:25:14;;;;;;;1.50;1.10;;;26.40;50.10;;;;;;222641;1266;22608;-49
2023/07/20 21:30:19;;;;;;;1.00;1.00;;;26.40;50.10;;;;;;222624;1266;25255;-46
2023/07/20 21:35:23;;;;;;;1.70;1.20;;;26.40;50.20;;;;;;222541;1261;24233;-50
2023/07/20 21:40:28;;;;;;;2.50;1.20;;;26.40;50.10;;;;;;222505;1263;22524;-46
2023/07/20 21:45:32;;;;;;;1.00;1.00;;;26.40;50.20;;;;;;222308;1261;22529;-49
2023/07/20 21:50:36;;;;;;;1.00;0.90;;;26.40;50.60;;;;;;222821;1260;22522;-47
2023/07/20 21:55:41;;;;;;;0.70;0.70;;;26.40;50.30;;;;;;222607;1267;24322;-48
2023/07/20 22:00:50;;;;;;;1.00;1.00;;;26.40;50.30;;;;;;222747;1263;24319;-47
2023/07/20 22:05:55;;;;;;;1.20;1.00;;;26.30;50.40;;;;;;222897;1251;25272;-49
2023/07/20 22:11:09;;;;;;;0.90;0.80;;;26.30;50.50;;;;;;222474;1254;22511;-50
2023/07/20 22:16:13;;;;;;;0.90;0.90;;;26.30;50.40;;;;;;222511;1264;22522;-46
2023/07/20 22:21:18;;;;;;;1.40;1.00;;;26.30;50.80;;;;;;222534;1261;22510;-47
2023/07/20 22:26:24;;;;;;;1.40;1.10;;;26.30;50.90;;;;;;222560;1266;25047;-46
2023/07/20 22:31:28;;;;;;;2.50;1.00;;;26.30;50.90;;;;;;222816;1263;24295;-47
2023/07/20 22:36:33;;;;;;;0.90;0.90;;;26.30;50.50;;;;;;222623;1264;22583;-49
2023/07/20 22:41:37;;;;;;;1.20;1.00;;;26.20;50.50;;;;;;222516;1260;22528;-47
2023/07/20 22:46:42;;;;;;;1.20;1.10;;;26.20;50.50;;;;;;222535;1258;25284;-47
2023/07/20 22:51:46;;;;;;;1.30;1.00;;;26.20;50.40;;;;;;222525;1261;26500;-46
2023/07/20 22:56:51;;;;;;;1.10;1.00;;;26.20;50.50;;;;;;222563;1251;25296;-47
2023/07/20 23:01:55;;;;;;;1.40;1.30;;;26.20;50.60;;;;;;222452;1264;22555;-48
2023/07/20 23:06:59;;;;;;;1.00;0.90;;;26.20;50.50;;;;;;222474;1257;25261;-47
2023/07/20 23:12:04;;;;;;;1.70;1.60;;;26.20;50.50;;;;;;222685;1266;22528;-49
2023/07/20 23:17:11;;;;;;;1.00;1.00;;;26.20;50.60;;;;;;222719;1260;22762;-47
2023/07/20 23:22:17;;;;;;;1.40;1.00;;;26.20;50.50;;;;;;222434;1266;24357;-48
2023/07/20 23:27:22;;;;;;;1.60;1.20;;;26.10;50.50;;;;;;222608;1244;22935;-48
2023/07/20 23:32:26;;;;;;;2.50;1.50;;;26.10;50.70;;;;;;222556;1251;22802;-46
2023/07/20 23:37:30;;;;;;;3.00;1.40;;;26.10;50.70;;;;;;222452;1246;24180;-48
2023/07/20 23:42:35;;;;;;;2.40;1.40;;;26.10;50.70;;;;;;222489;1264;22525;-47
2023/07/20 23:47:39;;;;;;;1.30;1.10;;;26.10;51.20;;;;;;222670;1260;24403;-46
2023/07/20 23:52:44;;;;;;;1.30;1.10;;;26.00;50.60;;;;;;222584;1254;22623;-47
2023/07/20 23:57:48;;;;;;;1.10;1.00;;;26.10;51.10;;;;;;222623;1248;25343;-50
